Tiempo atmosférico en la estación meteorológica de Ayamonte, Huelva (2 m.)

Fecha
DESCASC
Temp. máxima en grados centígrados (hora)
DESCASC
Temp. mínima en grados centígrados (hora)
DESCASC
Temp. media en grados centígrados
DESCASC
Racha de viento máxima en m/sg (hora)
DESCASC
Velocidad máxima media en intervalos de 10 minutos(hora)
DESCASC
Precipitaciones diarias en mm
DESCASC
Precipitaciones de 00:00 a 06:00 en mm
DESCASC
Precipitaciones de 06:00 a 12:00 en mm
DESCASC
Precipitaciones de 12:00 a 18:00 en mm
DESCASC
Precipitaciones de 18:00 a 24:00 en mm
DESCASC
10-12-2017 20.1 (13:20) 9.9 (07:50) 15 16.67 (23:59) 7.78 (23:20) 0 0 0 0 0
09-12-2017 21.4 (14:40) 13.2 (22:00) 17.3 8.61 (12:00) 4.17 (13:40) 0 0 0 0 0
08-12-2017 20 (16:00) 5.5 (00:50) 12.8 5.28 (15:00) 3.06 (15:10) 0 0 0 0 0
07-12-2017 18.2 (15:30) 3.7 (00:00) 11 3.89 (12:50) 1.94 (16:40) 0 0 0 0 0
06-12-2017 17.3 (15:00) 3.4 (00:00) 10.3 4.72 (15:30) 1.67 (13:50) 0 0 0 0 0
05-12-2017 17.7 (16:20) 2.7 (00:00) 10.2 5.56 (12:10) 3.06 (14:10) 0 0 0 0 0
04-12-2017 16.1 (16:10) 2.3 (00:00) 9.2 8.89 (11:10) 4.17 (14:30) 0 0 0 0 0
03-12-2017 16.1 (16:00) 2.9 (00:00) 9.5 7.78 (15:30) 3.61 (12:30) 0 0 0 0 0
02-12-2017 15.3 (15:50) 5 (00:00) 10.2 6.11 (11:20) 3.06 (12:10) 0 0 0 0 0
01-12-2017 15.8 (15:40) 4.9 (00:00) 10.4 8.89 (14:40) 3.89 (14:40) 0 0 0 0 0
30-11-2017 17.1 (14:30) 7.6 (00:00) 12.4 11.11 (06:20) 4.17 (09:10) 0 0 0 0 0
29-11-2017 18.4 (15:30) 10.7 (00:00) 14.5 10.56 (02:20) 4.17 (13:30) 5.3 5.2 0.1 0 0
28-11-2017 19.3 (17:20) 13.1 (00:00) 16.2 6.67 (12:10) 3.33 (12:10) 6.1 0.4 0 0 5.7
27-11-2017 19.9 (14:30) 11.6 (00:00) 15.8 5.56 (10:50) 2.78 (10:40) 0 0 0 0 0
26-11-2017 21.2 (15:00) 13.4 (00:00) 17.3 3.61 (13:30) 1.94 (13:50) 0 0 0 0 0
25-11-2017 20.6 (15:00) 10.1 (00:00) 15.4 3.89 (15:10) 1.67 (15:40) 0 0 0 0 0
24-11-2017 21 (15:40) 10.8 (00:00) 15.9 6.39 (11:50) 3.06 (11:40) 0 0 0 0 0
23-11-2017 20 (15:50) 12.6 (00:00) 16.3 8.89 (14:20) 4.44 (13:40) 0 0 0 0 0
22-11-2017 19.5 (14:40) 7 (00:00) 13.3 5.56 (12:50) 2.78 (12:30) 0 0 0 0 0
21-11-2017 20.5 (14:30) 5.8 (00:00) 13.2 6.67 (12:20) 3.33 (11:30) 0 0 0 0 0
20-11-2017 21.2 (14:50) 6.2 (00:00) 13.7 5 (13:40) 2.5 (14:10) 0 0 0 0 0
19-11-2017 19.9 (15:40) 6.3 (00:00) 13.1 4.72 (12:10) 2.5 (12:10) 0 0 0 0 0
18-11-2017 19.4 (13:10) 7 (00:00) 13.2 3.89 (13:50) 2.22 (15:10) 0 0 0 0 0
17-11-2017 19.9 (14:50) 7.5 (00:00) 13.7 4.44 (01:00) 2.78 (01:00) 0 0 0 0 0
16-11-2017 20.1 (14:00) 9.4 (00:00) 14.8 3.89 (03:30) 2.5 (15:50) 0 0 0 0 0
15-11-2017 20.7 (15:40) 6.2 (00:00) 13.5 5.28 (14:00) 2.78 (14:00) 0 0 0 0 0

Gráficas

Temp. máximas Temp. mínimas Temp. medias Precipitaciones Rachas de viento máximas Velocidades máximas media en intervalos de 10 minutos

Datos horarios

Fecha y hora oficial Temperatura (ºC) Velocidad del viento (km/h) Dirección del viento Racha (km/h) Dirección de racha Precipitación (mm) Presión (hPa) Tendencia (hPa) Humedad (%)
2017-12-14 23:00:00 12.7 2 Noroeste 8 Noroeste 0 1021 -0.6 97
2017-12-14 22:00:00 12.5 0 Calma 5 Noroeste 0 1021.3 -0.4 97
2017-12-14 21:00:00 13.4 0 Calma 4 Noroeste 0 1021.6 0 97
2017-12-14 20:00:00 15.1 0 Calma 14 Oeste 0 1021.6 -0.3 96
2017-12-14 19:00:00 15.8 7 Oeste 14 Sudoeste 0 1021.7 -0.6 93
2017-12-14 18:00:00 16.2 9 Oeste 17 Oeste 0 1021.6 -1.1 91
2017-12-14 17:00:00 16.7 8 Sudoeste 15 Sudoeste 0 1021.9 -2 89
2017-12-14 16:00:00 16.9 6 Oeste 22 Sudoeste 0 1022.3 -2.6 86
2017-12-14 15:00:00 16.9 13 Sudoeste 22 Oeste 0 1022.7 -3.3 78
2017-12-14 14:00:00 16.2 7 Sur 15 Sur 0 1023.9 -2.4 73
2017-12-14 13:00:00 16 8 Sur 14 Sur 0 1024.9 -1 64
2017-12-14 12:00:00 15.8 3 Sudoeste 9 Sudoeste 0 1026 0.2 68
2017-12-14 11:00:00 12.5 0 Calma 4 Noroeste 0 1026.3 0.6 81
2017-12-14 10:00:00 10.3 0 Calma 3 Norte 0 1025.9 0.1 92
2017-12-14 09:00:00 9.8 0 Calma 3 Noroeste 0 1025.8 -0.3 92
2017-12-14 08:00:00 9.4 0 Calma 4 Este 0 1025.7 -0.7 89
2017-12-14 07:00:00 9.2 0 Calma 5 Norte 0 1025.8 -0.7 88
2017-12-14 06:00:00 8.8 3 Norte 9 Norte 0 1026.1 -0.6 88
2017-12-14 05:00:00 8.1 5 Norte 9 Noroeste 0 1026.4 -0.5 89
2017-12-14 04:00:00 6.6 3 Norte 8 Norte 0 1026.5 -0.7 89
2017-12-14 03:00:00 7.7 0 Calma 9 Norte 0 1026.7 -0.6 83
2017-12-14 02:00:00 8.2 3 Norte 10 Norte 0 1026.9 -0.5 79
2017-12-14 01:00:00 8.1 4 Norte 12 Noroeste 0 1027.2 -0.2 83
2017-12-14 00:00:00 7.5 0 Calma 11 Norte 0 1027.3 0.1 88
2017-12-13 23:00:00 8.1 3 Noroeste 11 Norte 0 1027.4 0.4 86
2017-12-13 22:00:00 8 0 Calma 7 Noroeste 0 1027.4 0.7 85
2017-12-13 21:00:00 8.9 4 Noroeste 7 Noroeste 0 1027.2 0.7 82
2017-12-13 20:00:00 9.3 4 Noroeste 6 Noroeste 0 1027 0.3 75
2017-12-13 19:00:00 9.7 0 Calma 4 Noroeste 0 1026.7 -0.1 61
2017-12-13 18:00:00 13 2 Sur 9 Sur 0 1026.5 -0.3 50
2017-12-13 17:00:00 15.1 4 Sudeste 12 Sur 0 1026.7 -0.7 43
2017-12-13 16:00:00 16.3 5 Sudeste 13 Sudeste 0 1026.8 -1.5 42
2017-12-13 15:00:00 16 6 Este 16 Nordeste 0 1026.8 -1.9 39
2017-12-13 14:00:00 16 9 Este 17 Nordeste 0 1027.4 -0.9 41
2017-12-13 13:00:00 15.3 8 Nordeste 16 Nordeste 0 1028.3 0.6 48
2017-12-13 12:00:00 13.2 5 Nordeste 13 Nordeste 0 1028.7 1.2 61
2017-12-13 11:00:00 10 5 Noroeste 10 Noroeste 0 1028.3 1.3 72
2017-12-13 10:00:00 8.4 4 Norte 10 Noroeste 0 1027.7 1.4 80
2017-12-13 09:00:00 6.3 3 Norte 10 Noroeste 0 1027.5 1.6 89
2017-12-13 08:00:00 5.4 4 Norte 14 Norte 0 1027 1.4 86
2017-12-13 07:00:00 6.4 4 Norte 12 Norte 0 1026.3 1 83
2017-12-13 06:00:00 6.5 2 Norte 13 Noroeste 0 1025.9 1 82
2017-12-13 05:00:00 7.1 5 Norte 13 Noroeste 0 1025.6 0.6 80
2017-12-13 04:00:00 7.4 4 Norte 14 Norte 0 1025.3 0.6 76
2017-12-13 03:00:00 6.5 0 Calma 9 Norte 0 1024.9 0.7 77
2017-12-13 02:00:00 7.2 0 Calma 11 Noroeste 0 1025 1.5 76
2017-12-13 01:00:00 7.9 3 Norte 9 Sudeste 0 1024.7 1.7 71
2017-12-13 00:00:00 7.7 0 Calma 11 Noroeste 0 1024.2 1.8 71
2017-12-12 23:00:00 8.3 2 Norte 10 Norte 0 1023.5 1.8 68
2017-12-12 22:00:00 8.5 0 Calma 13 Norte 0 1023 2.1 63
2017-12-12 21:00:00 10.1 8 Noroeste 16 Noroeste 0 1022.4 2 59
2017-12-12 20:00:00 10.4 6 Noroeste 14 Norte 0 1021.7 2.2 54
2017-12-12 19:00:00 11.1 6 Noroeste 15 Norte 0 1020.9 2 52
2017-12-12 18:00:00 12.6 10 Noroeste 26 Noroeste 0 1020.4 2 46
2017-12-12 17:00:00 14 10 Noroeste 23 Noroeste 0 1019.5 0.9 43
2017-12-12 16:00:00 14.7 10 Noroeste 24 Noroeste 0 1018.9 0.3 41
2017-12-12 15:00:00 14.8 6 Norte 24 Noroeste 0 1018.4 -0.5 44
2017-12-12 14:00:00 14 10 Noroeste 20 Noroeste 0 1018.6 0.1 48
2017-12-12 13:00:00 12.9 6 Noroeste 22 Norte 0 1018.6 1.4 53
2017-12-12 12:00:00 11.3 8 Norte 24 Norte 0 1018.9 2.6 59
2017-12-12 11:00:00 9.8 7 Norte 30 Norte 0 1018.5 2.7 65
2017-12-12 10:00:00 8.4 11 Noroeste 30 Noroeste 0 1017.2 2.6 71
2017-12-12 09:00:00 6.9 6 Norte 21 Noroeste 0 1016.3 3.1 76
2017-12-12 08:00:00 7.1 12 Noroeste 27 Noroeste 0 1015.8 2.8 74
2017-12-12 07:00:00 7.6 12 Noroeste 27 Norte 0 1014.6 2 74
2017-12-12 06:00:00 7.7 11 Noroeste 23 Noroeste 0 1013.2 1.6 74
2017-12-12 05:00:00 8 12 Noroeste 27 Norte 0 1013 1.9 73
2017-12-12 04:00:00 7.8 8 Noroeste 27 Noroeste 0 1012.6 1.8 74
2017-12-12 03:00:00 8.4 11 Noroeste 28 Noroeste 0 1011.6 1.5 74
2017-12-12 02:00:00 8.6 13 Noroeste 32 Noroeste 0 1011.1 2 73
2017-12-12 01:00:00 8.9 12 Noroeste 25 Noroeste 0 1010.8 2.4 72
2017-12-12 00:00:00 9.5 11 Noroeste 27 Norte 0 1010.1 2.7 68
2017-12-11 23:00:00 10.1 11 Noroeste 24 Norte 0 1009.1 2.6 67
2017-12-11 22:00:00 10.6 9 Noroeste 26 Noroeste 0 1008.4 2.8 68
2017-12-11 21:00:00 10.7 6 Noroeste 22 Noroeste 0 1007.4 2.7 70
2017-12-11 20:00:00 11.1 6 Noroeste 18 Noroeste 0 1006.5 2.7 70
2017-12-11 19:00:00 12.1 8 Noroeste 21 Oeste 0 1005.6 2.2 65
2017-12-11 18:00:00 12.9 9 Oeste 23 Oeste 0 1004.7 1.1 59
2017-12-11 17:00:00 14.2 12 Oeste 35 Oeste 0 1003.8 0 56
2017-12-11 16:00:00 14.9 12 Oeste 28 Noroeste 0 1003.4 -0.8 56
2017-12-11 15:00:00 13.4 12 Noroeste 38 Oeste 0.2 1003.6 -0.8 58
2017-12-11 14:00:00 15.8 9 Noroeste 27 Noroeste 0 1003.8 -0.4 52
2017-12-11 13:00:00 14.7 10 Noroeste 29 Noroeste 0 1004.2 0.8 55
2017-12-11 12:00:00 13.9 12 Noroeste 33 Oeste 0 1004.4 2 64
2017-12-11 11:00:00 12.7 8 Oeste 21 Oeste 0 1004.2 2.9 81
2017-12-11 10:00:00 9.6 4 Oeste 10 Sudoeste 0 1003.4 1.9 96
2017-12-11 09:00:00 9 5 Oeste 17 Oeste 0.1 1002.4 2.2 96
2017-12-11 08:00:00 8.9 8 Noroeste 32 Noroeste 1 1001.3 1.7 95
2017-12-11 07:00:00 9.3 13 Noroeste 50 Noroeste 2.1 1001.5 2.4 94
2017-12-11 06:00:00 10.9 18 Noroeste 49 Noroeste 5 1000.2 -0.8 98
2017-12-11 05:00:00 12.6 18 Noroeste 69 Sudoeste 8.9 999.6 -4.3 99
2017-12-11 04:00:00 16.3 38 Sudoeste 67 Sudoeste 0.8 999.1 -6.8 96
2017-12-11 03:00:00 16.7 31 Sudoeste 61 Oeste 0.3 1001 -6.9 93
2017-12-11 02:00:00 16.7 30 Sudoeste 66 Oeste 0 1003.9 -5.1 88
2017-12-11 01:00:00 17 28 Sudoeste 52 Oeste 0 1005.9 -4.6 86
2017-12-11 00:00:00 17.1 27 Sudoeste 60 Sudoeste 0 1007.9 -3.3 84
2017-12-10 23:00:00 16.9 24 Oeste 45 Sudoeste 0 1009 -3.7 85
2017-12-10 22:00:00 16.5 15 Oeste 30 Oeste 0 1010.5 -3.3 85
2017-12-10 21:00:00 16.4 15 Sudoeste 30 Sudoeste 0 1011.2 -3.3 83
2017-12-10 20:00:00 16.6 18 Oeste 36 Oeste 0 1012.7 -2.5 82
2017-12-10 19:00:00 16.8 14 Sudoeste 36 Oeste 0 1013.8 -2.7 78
2017-12-10 18:00:00 17 18 Oeste 35 Oeste 0 1014.5 -3.5 73
2017-12-10 17:00:00 18 17 Sudoeste 39 Sudoeste 0 1015.2 -4.7 68
2017-12-10 16:00:00 19.2 15 Sudoeste 35 Sudoeste 0 1016.5 -4.2 72
2017-12-10 15:00:00 18.6 21 Sudoeste 36 Sudoeste 0 1018 -3.6 71
2017-12-10 14:00:00 19.6 16 Sudoeste 28 Sudoeste 0 1019.9 -2.7 70
2017-12-10 13:00:00 19 14 Sudoeste 26 Sudoeste 0 1020.7 -2.7 71
2017-12-10 12:00:00 18.6 14 Sudoeste 24 Sudoeste 0 1021.6 -2 70
2017-12-10 11:00:00 17.8 9 Sudoeste 17 Sudoeste 0 1022.6 -0.9 78
2017-12-10 10:00:00 13.8 0 Calma 7 Noroeste 0 1023.4 0 99
2017-12-10 09:00:00 10.9 3 Noroeste 8 Oeste 0 1023.6 -0.7 99
2017-12-10 08:00:00 10.2 3 Noroeste 6 Noroeste 0 1023.5 -1.1 99
2017-12-10 07:00:00 11.5 0 Calma 4 Noroeste 0 1023.4 -1.8 99
2017-12-10 06:00:00 10.9 0 Calma 9 Oeste 0 1024.3 -0.8 98
2017-12-10 05:00:00 10.9 4 Sudoeste 12 Norte 0 1024.6 -1 97
2017-12-10 04:00:00 12.8 3 Noroeste 10 Noroeste 0 1025.2 -1.2 96
2017-12-10 03:00:00 13.3 6 Noroeste 13 Norte 0 1025.1 -1.9 94
2017-12-10 02:00:00 13.7 4 Norte 14 Norte 0 1025.6 -1.3 92
2017-12-10 01:00:00 14 6 Noroeste 18 Noroeste 0 1026.4 -0.3 91
2017-12-10 00:00:00 14.1 6 Noroeste 14 Norte 0 1027 0.5 89
2017-12-09 23:00:00 13.9 3 Noroeste 11 Norte 0 1026.9 1.1 88
2017-12-09 22:00:00 13.3 3 Noroeste 9 Noroeste 0 1026.7 0.9 83
2017-12-09 21:00:00 14.1 4 Noroeste 6 Noroeste 0 1026.5 1.1 79
2017-12-09 20:00:00 15.2 2 Noroeste 4 Noroeste 0 1025.8 0.5 70
2017-12-09 19:00:00 17.6 3 Noroeste 9 Noroeste 0 1025.8 0.3 62
2017-12-09 18:00:00 18.5 4 Noroeste 18 Norte 0 1025.4 -0.3 59
2017-12-09 17:00:00 19.6 6 Noroeste 19 Norte 0 1025.3 -0.9 56
2017-12-09 16:00:00 20.4 9 Norte 26 Norte 0 1025.5 -1.7 55
2017-12-09 15:00:00 19.9 12 Noroeste 26 Noroeste 0 1025.7 -2.3 55
2017-12-09 14:00:00 20.3 9 Noroeste 29 Norte 0 1026.2 -1.7 58
2017-12-09 13:00:00 19 11 Noroeste 27 Noroeste 0 1027.2 -0.2 64
2017-12-09 12:00:00 17.9 13 Noroeste 31 Norte 0 1028 1.1 70
2017-12-09 11:00:00 17 7 Norte 24 Noroeste 0 1027.9 1.3 78
2017-12-09 10:00:00 15.8 8 Noroeste 19 Noroeste 0 1027.4 1.1 87
2017-12-09 09:00:00 15.1 6 Noroeste 20 Noroeste 0 1026.9 0.7 92
2017-12-09 08:00:00 15.2 6 Noroeste 23 Norte 0 1026.6 0.1 92
2017-12-09 07:00:00 15.2 10 Noroeste 22 Norte 0 1026.3 -0.8 92
2017-12-09 06:00:00 14.9 7 Noroeste 16 Noroeste 0 1026.2 -1 92
2017-12-09 05:00:00 14.3 6 Noroeste 15 Norte 0 1026.5 -1 92
2017-12-09 04:00:00 14.9 3 Norte 19 Noroeste 0 1027.1 -0.6 88
2017-12-09 03:00:00 15.2 10 Noroeste 28 Noroeste 0 1027.2 -0.6 88
2017-12-09 02:00:00 14.9 2 Norte 11 Noroeste 0 1027.5 -0.5 93
2017-12-09 01:00:00 14.6 5 Noroeste 9 Norte 0 1027.7 -0.5 92
2017-12-09 00:00:00 15.6 0 Calma 6 Oeste 0 1027.8 -0.2 86
2017-12-08 23:00:00 15.5 0 Calma 9 Oeste 0 1028 0.4 80
2017-12-08 22:00:00 14.7 0 Calma 5 Oeste 0 1028.2 0.7 71
2017-12-08 21:00:00 14.3 0 Calma 5 Norte 0 1028 0.6 68
2017-12-08 20:00:00 14.2 0 Calma 5 Oeste 0 1027.6 0.5 62
2017-12-08 19:00:00 14.6 2 Oeste 8 Oeste 0 1027.5 0.1 58
2017-12-08 18:00:00 16.2 5 Sudoeste 13 Sudoeste 0 1027.4 0 54
2017-12-08 17:00:00 18.4 7 Sudoeste 15 Sudoeste 0 1027.1 -1.1 47
2017-12-08 16:00:00 19.6 8 Sudoeste 19 Oeste 0 1027.4 -1.7 42
2017-12-08 15:00:00 19.6 6 Oeste 19 Noroeste 0 1027.4 -2.5 36
2017-12-08 14:00:00 18.4 4 Norte 17 Norte 0 1028.2 -1.8 38
2017-12-08 13:00:00 17.4 3 Norte 13 Norte 0 1029.1 -0.5 44
2017-12-08 12:00:00 14.9 4 Norte 15 Noroeste 0 1029.9 0.4 53
2017-12-08 11:00:00 12.7 7 Noroeste 18 Norte 0 1030 0.7 61
2017-12-08 10:00:00 10 8 Noroeste 15 Norte 0 1029.6 1 69
2017-12-08 09:00:00 8.1 2 Noroeste 14 Noroeste 0 1029.5 0.8 79
2017-12-08 08:00:00 7.1 0 Calma 13 Norte 0 1029.3 0.6 78
2017-12-08 07:00:00 8.1 5 Norte 18 Norte 0 1028.6 -0.2 77
2017-12-08 06:00:00 8.1 3 Norte 13 Noroeste 0 1028.7 0 77
2017-12-08 05:00:00 8.3 5 Noroeste 12 Noroeste 0 1028.7 -0.4 80
2017-12-08 04:00:00 7.2 0 Calma 8 Noroeste 0 1028.8 -0.9 83
2017-12-08 03:00:00 8.2 3 Norte 12 Noroeste 0 1028.7 -1 83
2017-12-08 02:00:00 7.1 2 Norte 7 Norte 0 1029.1 -0.5 89
2017-12-08 01:00:00 6.7 0 Calma 8 Norte 0 1029.7 0.2 92
2017-12-08 00:00:00 6.4 0 Calma 8 Noroeste 0 1029.7 0.3 92
2017-12-07 23:00:00 7.5 4 Norte 9 Norte 0 1029.6 0.3 94
2017-12-07 22:00:00 7.2 0 Calma 4 Noroeste 0 1029.5 0.6 92
2017-12-07 21:00:00 9 0 Calma 6 Noroeste 0 1029.4 0.7 86
2017-12-07 20:00:00 10.5 3 Noroeste 7 Noroeste 0 1029.3 0.7 82
2017-12-07 19:00:00 11.1 0 Calma 0 Calma 0 1028.9 0.3 68
2017-12-07 18:00:00 14.3 0 Calma 9 Sudeste 0 1028.7 -0.1 58
2017-12-07 17:00:00 16.4 5 Sudeste 11 Sur 0 1028.6 -1 48
2017-12-07 16:00:00 17.5 6 Sur 11 Sur 0 1028.6 -1.5 48
2017-12-07 15:00:00 17.5 0 Calma 9 Norte 0 1028.8 -2.4 44
2017-12-07 14:00:00 16.4 0 Calma 12 Este 0 1029.6 -1.5 50
2017-12-07 13:00:00 15.5 6 Este 14 Este 0 1030.1 -0.7 55
2017-12-07 12:00:00 14.1 5 Nordeste 11 Nordeste 0 1031.2 1.2 61
2017-12-07 11:00:00 11.2 3 Nordeste 11 Noroeste 0 1031.1 1.4 74
2017-12-07 10:00:00 8.4 0 Calma 10 Nordeste 0 1030.8 1.7 88
2017-12-07 09:00:00 4.9 0 Calma 8 Noroeste 0 1030 0.9 97
2017-12-07 08:00:00 4.9 2 Norte 11 Norte 0 1029.7 0.1 97
2017-12-07 07:00:00 3.7 3 Norte 6 Noroeste 0 1029.1 -0.8 97
2017-12-07 06:00:00 4.1 3 Norte 8 Noroeste 0 1029.1 -0.5 94
2017-12-07 05:00:00 5.5 0 Calma 8 Norte 0 1029.6 -0.1 94
2017-12-07 04:00:00 5.4 3 Norte 7 Noroeste 0 1029.9 -0.3 94
2017-12-07 03:00:00 5.3 0 Calma 6 Norte 0 1029.6 -0.7 94
2017-12-07 02:00:00 6 2 Norte 7 Norte 0 1029.7 -0.5 93
2017-12-07 01:00:00 6 0 Calma 10 Norte 0 1030.2 0.1 93
2017-12-07 00:00:00 6 3 Noroeste 7 Norte 0 1030.3 0.2 94
2017-12-06 23:00:00 6.7 0 Calma 8 Norte 0 1030.2 0.4 92
2017-12-06 22:00:00 7.2 4 Norte 8 Noroeste 0 1030.1 0.8 91
2017-12-06 21:00:00 7.9 0 Calma 5 Norte 0 1030.1 0.7 85
2017-12-06 20:00:00 9.4 3 Noroeste 7 Noroeste 0 1029.8 0.5 76
2017-12-06 19:00:00 10.7 0 Calma 2 Noroeste 0 1029.3 0 64
2017-12-06 18:00:00 13.5 0 Calma 9 Sudeste 0 1029.4 -0.1 54
2017-12-06 17:00:00 16.4 3 Sudeste 11 Sur 0 1029.3 -0.8 47
2017-12-06 16:00:00 16.8 4 Sudeste 17 Este 0 1029.3 -1.9 46
2017-12-06 15:00:00 17 5 Este 13 Este 0 1029.5 -2.3 46
2017-12-06 14:00:00 16.5 4 Este 14 Este 0 1030.1 -2.2 49
2017-12-06 13:00:00 14.8 3 Este 13 Nordeste 0 1031.2 -0.6 55
2017-12-06 12:00:00 12.9 3 Noroeste 10 Nordeste 0 1031.8 0 68
2017-12-06 11:00:00 10.8 2 Norte 9 Nordeste 0 1032.3 1 77
2017-12-06 10:00:00 7.2 3 Norte 9 Noroeste 0 1031.8 0.9 88
2017-12-06 09:00:00 4.9 3 Norte 11 Norte 0 1031.8 0.7 98
2017-12-06 08:00:00 3.6 2 Norte 8 Noroeste 0 1031.3 -0.1 98
2017-12-06 07:00:00 4.1 4 Norte 10 Norte 0 1030.9 -0.3 97
2017-12-06 06:00:00 4.6 2 Norte 9 Norte 0 1031.1 0 96
2017-12-06 05:00:00 4.4 2 Norte 9 Noroeste 0 1031.4 0 95
2017-12-06 04:00:00 4.6 2 Norte 8 Norte 0 1031.2 -0.6 94
2017-12-06 03:00:00 5.1 0 Calma 8 Norte 0 1031.1 -1.1 94
2017-12-06 02:00:00 5 0 Calma 7 Norte 0 1031.4 -0.6 93
2017-12-06 01:00:00 5.1 3 Norte 6 Norte 0 1031.8 0 90
2017-12-06 00:00:00 5.9 0 Calma 6 Norte 0 1032.2 0.7 86
2017-12-05 23:00:00 6.9 0 Calma 7 Nordeste 0 1032 1 82
2017-12-05 22:00:00 7.3 0 Calma 8 Este 0 1031.8 1 81
2017-12-05 21:00:00 8.5 3 Nordeste 8 Este 0 1031.5 0.8 74
2017-12-05 20:00:00 9.3 5 Nordeste 7 Este 0 1031 0.3 67
2017-12-05 19:00:00 11.3 4 Este 8 Este 0 1030.8 0.2 59
2017-12-05 18:00:00 14.8 4 Este 9 Este 0 1030.7 -0.1 48
2017-12-05 17:00:00 16.6 5 Este 13 Este 0 1030.7 -0.9 43
2017-12-05 16:00:00 17.4 5 Este 16 Este 0 1030.6 -1.5 43
2017-12-05 15:00:00 17 8 Este 18 Este 0 1030.8 -1.9 44
2017-12-05 14:00:00 16.4 8 Este 19 Este 0 1031.6 -1.4 47
2017-12-05 13:00:00 15.5 9 Este 20 Este 0 1032.1 -0.6 50
2017-12-05 12:00:00 14 9 Este 18 Este 0 1032.7 0.3 57
2017-12-05 11:00:00 11.6 4 Nordeste 13 Nordeste 0 1033 1.4 71
2017-12-05 10:00:00 7.1 4 Norte 10 Norte 0 1032.7 1.3 83
2017-12-05 09:00:00 3.5 0 Calma 6 Norte 0 1032.4 1.3 93
2017-12-05 08:00:00 3.5 0 Calma 8 Norte 0 1031.6 0.4 92
2017-12-05 07:00:00 3.6 2 Norte 7 Norte 0 1031.4 0.1 89
2017-12-05 06:00:00 4.1 0 Calma 6 Noroeste 0 1031.1 -0.1 88
2017-12-05 05:00:00 3.9 2 Norte 9 Norte 0 1031.2 0.3 86
2017-12-05 04:00:00 4.2 4 Norte 8 Norte 0 1031.3 0.1 83
2017-12-05 03:00:00 4.3 3 Norte 7 Nordeste 0 1031.2 -0.1 82
2017-12-05 02:00:00 3.8 3 Norte 8 Nordeste 0 1030.9 -0.2 83
2017-12-05 01:00:00 3.6 2 Noroeste 5 Norte 0 1031.2 0.1 82
2017-12-05 00:00:00 4 0 Calma 4 Noroeste 0 1031.3 0.5 77
2017-12-04 23:00:00 5.2 0 Calma 7 Nordeste 0 1031.1 0.7 68
2017-12-04 22:00:00 5.9 0 Calma 4 Norte 0 1031.1 1.1 65
2017-12-04 21:00:00 7.4 0 Calma 7 Nordeste 0 1030.8 1.1 61
2017-12-04 20:00:00 8.1 3 Nordeste 7 Nordeste 0 1030.4 1 56
2017-12-04 19:00:00 9.7 0 Calma 8 Este 0 1030 0.9 51
2017-12-04 18:00:00 13.6 4 Este 14 Este 0 1029.7 0.4 42
2017-12-04 17:00:00 15.3 8 Este 20 Este 0 1029.4 -0.3 38
2017-12-04 16:00:00 15.8 13 Este 24 Sudeste 0 1029.1 -1.2 39
2017-12-04 15:00:00 15.3 13 Este 29 Este 0 1029.3 -1.6 39
2017-12-04 14:00:00 15.2 13 Este 27 Este 0 1029.7 -1.5 38
2017-12-04 13:00:00 14.2 13 Este 28 Este 0 1030.3 -0.3 40
2017-12-04 12:00:00 13.1 14 Este 32 Este 0 1030.9 0.9 43
2017-12-04 11:00:00 11.4 10 Este 24 Nordeste 0 1031.2 1.8 47
2017-12-04 10:00:00 7.8 2 Nordeste 13 Nordeste 0 1030.6 1.7 63
2017-12-04 09:00:00 3 4 Noroeste 7 Noroeste 0 1030 1.4 75
2017-12-04 08:00:00 2.9 4 Noroeste 9 Noroeste 0 1029.4 0.6 74
2017-12-04 07:00:00 2.8 3 Norte 6 Norte 0 1028.9 -0.1 65
2017-12-04 06:00:00 4.9 0 Calma 12 Nordeste 0 1028.6 -0.4 59
2017-12-04 05:00:00 5.9 3 Norte 15 Nordeste 0 1028.8 -0.4 59
2017-12-04 04:00:00 5.6 5 Nordeste 15 Nordeste 0 1029 -0.2 64
2017-12-04 03:00:00 3.2 2 Norte 7 Nordeste 0 1029 -0.3 67
2017-12-04 02:00:00 3.3 3 Norte 7 Norte 0 1029.2 0.3 67
2017-12-04 01:00:00 3.7 4 Norte 8 Norte 0 1029.2 0.7 66
2017-12-04 00:00:00 3.1 2 Norte 6 Nordeste 0 1029.3 1.2 66
2017-12-03 23:00:00 4.1 0 Calma 8 Nordeste 0 1028.9 1.6 63
2017-12-03 22:00:00 5.8 3 Nordeste 10 Nordeste 0 1028.5 1.5 57
2017-12-03 21:00:00 6.3 5 Nordeste 9 Nordeste 0 1028.1 1.8 55
2017-12-03 20:00:00 6.6 4 Nordeste 9 Nordeste 0 1027.3 1.4 49
2017-12-03 19:00:00 8.7 3 Nordeste 10 Este 0 1027 1.4 41
2017-12-03 18:00:00 12.4 5 Nordeste 18 Nordeste 0 1026.3 0.2 34
2017-12-03 17:00:00 14.9 9 Nordeste 22 Nordeste 0 1025.9 -0.6 32
2017-12-03 16:00:00 15.7 4 Nordeste 28 Nordeste 0 1025.6 -1.4 34
2017-12-03 15:00:00 15.4 11 Nordeste 27 Este 0 1026.1 -1.5 35
2017-12-03 14:00:00 15.3 8 Nordeste 26 Nordeste 0 1026.5 -1.2 38
2017-12-03 13:00:00 13.6 12 Nordeste 25 Nordeste 0 1027 -0.2 41
2017-12-03 12:00:00 13.1 12 Este 26 Este 0 1027.6 1.2 44
2017-12-03 11:00:00 10.8 6 Nordeste 16 Nordeste 0 1027.7 2 55
2017-12-03 10:00:00 7.1 5 Noroeste 14 Noroeste 0 1027.2 2 66
2017-12-03 09:00:00 5.7 3 Norte 12 Noroeste 0 1026.4 1.5 69
2017-12-03 08:00:00 5.1 5 Norte 18 Noroeste 0 1025.7 1.1 68
2017-12-03 07:00:00 4.5 4 Norte 15 Noroeste 0 1025.2 0.4 68
2017-12-03 06:00:00 5.4 4 Norte 14 Norte 0 1024.9 0.2 67
2017-12-03 05:00:00 6.1 7 Norte 15 Norte 0 1024.6 0 65
2017-12-03 04:00:00 6 4 Norte 13 Norte 0 1024.8 0.2 66
2017-12-03 03:00:00 6.1 3 Norte 12 Noroeste 0 1024.7 0.1 63
2017-12-03 02:00:00 6.6 6 Norte 12 Noroeste 0 1024.6 0.3 63
2017-12-03 01:00:00 5.4 2 Este 7 Sudeste 0 1024.6 0.6 61
2017-12-03 00:00:00 6.9 0 Calma 13 Norte 0 1024.6 1 56
2017-12-02 23:00:00 7.8 2 Norte 11 Norte 0 1024.3 0.9 53
2017-12-02 22:00:00 8.2 3 Norte 14 Norte 0 1024 0.9 50
2017-12-02 21:00:00 9.5 4 Norte 21 Norte 0 1023.6 1.1 47
2017-12-02 20:00:00 9.9 5 Noroeste 13 Norte 0 1023.4 1.2 42
2017-12-02 19:00:00 10.7 5 Norte 13 Noroeste 0 1023.1 0.7 39
2017-12-02 18:00:00 12.3 0 Calma 11 Noroeste 0 1022.5 -0.4 35
2017-12-02 17:00:00 14.3 4 Nordeste 18 Este 0 1022.2 -1.3 32
2017-12-02 16:00:00 15.2 4 Nordeste 17 Nordeste 0 1022.4 -1.9 33
2017-12-02 15:00:00 14.4 5 Este 18 Nordeste 0 1022.9 -2.2 35
2017-12-02 14:00:00 14 9 Este 18 Sudeste 0 1023.5 -1.6 35
2017-12-02 13:00:00 13.5 9 Este 22 Este 0 1024.3 -0.5 38
2017-12-02 12:00:00 12.3 10 Este 22 Nordeste 0 1025.1 0.9 42
2017-12-02 11:00:00 11.5 9 Este 17 Este 0 1025.1 1.7 50
2017-12-02 10:00:00 9.1 0 Calma 9 Nordeste 0 1024.8 1.7 69
2017-12-02 09:00:00 5.9 2 Nordeste 9 Norte 0 1024.2 1.3 83
2017-12-02 08:00:00 5.3 0 Calma 9 Noroeste 0 1023.4 0.7 91
2017-12-02 07:00:00 5.9 0 Calma 11 Norte 0 1023.1 0.4 88
2017-12-02 06:00:00 6.7 4 Norte 13 Noroeste 0 1022.9 0.6 87
2017-12-02 05:00:00 7.5 2 Norte 12 Norte 0 1022.7 0.5 85
2017-12-02 04:00:00 8 3 Norte 12 Norte 0 1022.7 0.7 83
2017-12-02 03:00:00 8.4 3 Norte 17 Norte 0 1022.3 0.3 81
2017-12-02 02:00:00 8.8 4 Norte 17 Norte 0 1022.2 0.3 79
2017-12-02 01:00:00 9.3 3 Norte 21 Nordeste 0 1022 0.3 76
2017-12-02 00:00:00 10 6 Norte 21 Nordeste 0 1022 0.3 71
2017-12-01 23:00:00 10.2 3 Norte 17 Noroeste 0 1021.9 0.7 67
2017-12-01 22:00:00 10.9 6 Norte 20 Noroeste 0 1021.7 1 63
2017-12-01 21:00:00 11.4 6 Norte 15 Norte 0 1021.7 1.5 61
2017-12-01 20:00:00 11 5 Noroeste 13 Noroeste 0 1021.2 1.3 58
2017-12-01 19:00:00 12.6 7 Noroeste 18 Noroeste 0 1020.7 1.1 50
2017-12-01 18:00:00 13.4 7 Noroeste 23 Noroeste 0 1020.2 0.4 44
2017-12-01 17:00:00 14.7 9 Noroeste 26 Noroeste 0 1019.9 -0.7 40
2017-12-01 16:00:00 15.4 11 Noroeste 32 Norte 0 1019.6 -2.2 39
2017-12-01 15:00:00 15.4 13 Noroeste 32 Noroeste 0 1019.8 -2.7 40
2017-12-01 14:00:00 15.1 10 Noroeste 24 Noroeste 0 1020.6 -2 41
2017-12-01 13:00:00 14.3 5 Norte 22 Noroeste 0 1021.8 -0.7 46
2017-12-01 12:00:00 12.9 9 Noroeste 24 Noroeste 0 1022.5 0.6 51
2017-12-01 11:00:00 10.1 8 Norte 22 Noroeste 0 1022.6 0.8 59
2017-12-01 10:00:00 7.4 9 Noroeste 21 Norte 0 1022.5 1.2 67
2017-12-01 09:00:00 6 5 Norte 18 Noroeste 0 1021.9 0.6 71
2017-12-01 08:00:00 5.2 0 Calma 18 Norte 0 1021.8 0.3 70
2017-12-01 07:00:00 6.2 6 Noroeste 17 Noroeste 0 1021.3 -0.7 70
2017-12-01 06:00:00 6.3 6 Norte 16 Norte 0 1021.3 -0.7 70
2017-12-01 05:00:00 6.7 7 Noroeste 21 Norte 0 1021.5 -0.3 67
2017-12-01 04:00:00 6.7 5 Norte 14 Noroeste 0 1022 0.3 65
2017-12-01 03:00:00 7.4 5 Noroeste 15 Norte 0 1022 0.2 65
2017-12-01 02:00:00 7.7 5 Noroeste 14 Noroeste 0 1021.8 0.5 62
2017-12-01 01:00:00 8.1 7 Noroeste 16 Noroeste 0 1021.7 1.3 58
2017-12-01 00:00:00 8.3 3 Norte 11 Norte 0 1021.8 2 57
2017-11-30 23:00:00 8 4 Noroeste 11 Noroeste 0 1021.3 2.1 53
2017-11-30 22:00:00 9.7 2 Norte 19 Norte 0 1020.4 2.3 50
2017-11-30 21:00:00 10.4 3 Norte 14 Noroeste 0 1019.8 2.7 46
2017-11-30 20:00:00 10.9 4 Norte 18 Norte 0 1019.2 3.1 41
2017-11-30 19:00:00 12.1 4 Norte 17 Este 0 1018.1 2.6 38
2017-11-30 18:00:00 13.7 5 Norte 24 Norte 0 1017.1 2.2 34
2017-11-30 17:00:00 15.6 6 Norte 29 Noroeste 0 1016.1 1.5 34
2017-11-30 16:00:00 16.6 6 Norte 25 Noroeste 0 1015.5 0.7 35
2017-11-30 15:00:00 16.1 10 Norte 30 Norte 0 1014.9 0.1 38
2017-11-30 14:00:00 16.3 9 Norte 25 Norte 0 1014.6 0.5 40
2017-11-30 13:00:00 14.7 9 Noroeste 25 Oeste 0 1014.8 1.5 48
2017-11-30 12:00:00 13.8 8 Noroeste 25 Noroeste 0 1014.8 2.8 55
2017-11-30 11:00:00 11.6 6 Norte 24 Norte 0 1014.1 3 61
2017-11-30 10:00:00 9.4 12 Noroeste 29 Noroeste 0 1013.3 3 69
2017-11-30 09:00:00 8.1 12 Noroeste 27 Noroeste 0 1012 2.2 74
2017-11-30 08:00:00 7.9 12 Noroeste 27 Noroeste 0 1011.1 1.7 74
2017-11-30 07:00:00 8.1 13 Noroeste 40 Noroeste 0 1010.3 0.8 72
2017-11-30 06:00:00 8.5 14 Noroeste 29 Noroeste 0 1009.8 0.1 71
2017-11-30 05:00:00 8.6 11 Noroeste 30 Noroeste 0 1009.4 -0.3 71
2017-11-30 04:00:00 9.1 12 Noroeste 21 Noroeste 0 1009.5 -0.4 70
2017-11-30 03:00:00 9.4 10 Noroeste 25 Norte 0 1009.7 0.1 70
2017-11-30 02:00:00 9.4 5 Noroeste 17 Noroeste 0 1009.7 0.4 72
2017-11-30 01:00:00 10 5 Norte 21 Norte 0 1009.9 0.8 71
2017-11-30 00:00:00 10.9 4 Norte 21 Norte 0 1009.6 0.9 70
2017-11-29 23:00:00 11.6 11 Norte 24 Norte 0 1009.3 0.9 68
2017-11-29 22:00:00 12.2 7 Norte 18 Norte 0 1009.1 1.2 68
2017-11-29 21:00:00 11.2 0 Calma 8 Noroeste 0 1008.7 1.3 71
2017-11-29 20:00:00 12.5 3 Noroeste 13 Noroeste 0 1008.4 1.7 67
2017-11-29 19:00:00 13.9 6 Noroeste 16 Noroeste 0 1007.9 1.6 62
2017-11-29 18:00:00 15.3 9 Noroeste 27 Noroeste 0 1007.4 1.1 60
2017-11-29 17:00:00 16.9 12 Noroeste 26 Noroeste 0 1006.7 0.1 57
2017-11-29 16:00:00 17.8 13 Noroeste 23 Noroeste 0 1006.3 -0.5 53
2017-11-29 15:00:00 17.8 8 Noroeste 26 Norte 0 1006.3 -1 65
2017-11-29 14:00:00 16.9 12 Noroeste 32 Norte 0 1006.6 -0.6 76
2017-11-29 13:00:00 17.2 13 Noroeste 27 Noroeste 0 1006.8 0.1 81
2017-11-29 12:00:00 16.5 9 Noroeste 21 Norte 0 1007.3 0.8 91
2017-11-29 11:00:00 16.7 6 Noroeste 19 Noroeste 0 1007.2 1.1 96
2017-11-29 10:00:00 17 5 Noroeste 13 Norte 0 1006.7 0.7 99
2017-11-29 09:00:00 15.6 0 Calma 8 Norte 0 1006.5 0.3 99
2017-11-29 08:00:00 15.8 0 Calma 6 Oeste 0.1 1006.1 0 99
2017-11-29 07:00:00 16.1 3 Oeste 8 Oeste 0 1006 -0.9 99
2017-11-29 06:00:00 16.2 4 Oeste 12 Oeste 0.1 1006.2 -1.4 99
2017-11-29 05:00:00 16.3 7 Oeste 12 Sudoeste 0.1 1006.1 -1.6 99
2017-11-29 04:00:00 16.6 5 Noroeste 17 Noroeste 1.8 1006.9 -1.7 99
2017-11-29 03:00:00 17.4 5 Noroeste 38 Oeste 2.9 1007.6 -1.6 99
2017-11-29 02:00:00 18 6 Oeste 17 Sudoeste 0.3 1007.7 -2.4 99
2017-11-29 01:00:00 18.1 8 Oeste 20 Oeste 0 1008.6 -1.7 99
2017-11-29 00:00:00 17.9 9 Sudoeste 18 Sudoeste 0.1 1009.2 -1.5 99
2017-11-28 23:00:00 17.8 6 Oeste 11 Oeste 1.9 1010.1 -1.1 99
2017-11-28 22:00:00 17.4 5 Sudoeste 10 Sudoeste 0.3 1010.3 -0.7 99
2017-11-28 21:00:00 17.4 6 Sudoeste 15 Sudoeste 0.3 1010.7 -1.2 99
2017-11-28 20:00:00 17.8 12 Sudoeste 22 Sudoeste 0.7 1011.2 -1.6 99
2017-11-28 19:00:00 18.2 5 Sudeste 9 Sudeste 2.4 1011 -2.3 97
2017-11-28 18:00:00 19 0 Calma 6 Este 0 1011.9 -2.6 91
2017-11-28 17:00:00 19.1 0 Calma 18 Sudeste 0 1012.8 -2.4 89
2017-11-28 16:00:00 18.3 10 Este 18 Este 0 1013.3 -3.3 87
2017-11-28 15:00:00 17.9 7 Sudeste 21 Este 0 1014.5 -3.1 82
2017-11-28 14:00:00 17.9 10 Este 23 Sudeste 0 1015.2 -3.3 77
2017-11-28 13:00:00 16.9 10 Este 24 Este 0 1016.6 -2.4 79
2017-11-28 12:00:00 15.8 9 Este 19 Este 0 1017.6 -0.8 85
2017-11-28 11:00:00 14.6 6 Nordeste 14 Nordeste 0 1018.5 0 87
2017-11-28 10:00:00 13.8 4 Nordeste 11 Este 0 1019 0.2 90
2017-11-28 09:00:00 13.3 5 Nordeste 16 Este 0 1018.4 -0.3 91
2017-11-28 08:00:00 13.1 6 Este 12 Nordeste 0 1018.5 -0.7 91
2017-11-28 07:00:00 13.6 7 Este 14 Este 0 1018.8 -0.7 91
2017-11-28 06:00:00 13.7 4 Nordeste 9 Nordeste 0 1018.7 -1.9 92
2017-11-28 05:00:00 14 4 Nordeste 12 Este 0.1 1019.2 -1.6 94
2017-11-28 04:00:00 14.3 6 Este 11 Este 0 1019.5 -2.3 93
2017-11-28 03:00:00 14.5 0 Calma 6 Norte 0 1020.6 -2.1 93
2017-11-28 02:00:00 15.2 0 Calma 15 Sudeste 0 1020.8 -2 89
2017-11-28 01:00:00 16.5 6 Sudeste 15 Sudeste 0.3 1021.8 -0.9 91
2017-11-28 00:00:00 14.5 0 Calma 5 Norte 0 1022.7 -0.3 94
2017-11-27 23:00:00 14.6 0 Calma 7 Norte 0 1022.8 -0.1 93
2017-11-27 22:00:00 14 0 Calma 5 Noroeste 0 1022.7 -0.6 93
2017-11-27 21:00:00 13.8 0 Calma 4 Nordeste 0 1023 -0.2 91
2017-11-27 20:00:00 14.4 0 Calma 3 Norte 0 1022.9 -0.2 88
2017-11-27 19:00:00 15.3 0 Calma 0 Calma 0 1023.3 0 82
2017-11-27 18:00:00 17.4 0 Calma 12 Sudeste 0 1023.2 -0.4 71
2017-11-27 17:00:00 18.7 5 Sudeste 13 Este 0 1023.1 -1.1 65
2017-11-27 16:00:00 18.5 5 Sudeste 15 Este 0 1023.3 -2.1 64
2017-11-27 15:00:00 19.1 8 Sudeste 19 Sudeste 0 1023.6 -2.5 59
2017-11-27 14:00:00 19.4 6 Este 15 Este 0 1024.2 -1.8 58
2017-11-27 13:00:00 17.6 5 Este 11 Este 0 1025.4 -0.7 59
2017-11-27 12:00:00 17.3 5 Nordeste 13 Este 0 1026.1 0.7 61
2017-11-27 11:00:00 14.9 5 Este 20 Este 0 1026 0.8 68
2017-11-27 10:00:00 13.9 4 Nordeste 10 Este 0 1026.1 1.5 71
2017-11-27 09:00:00 12.9 6 Este 10 Este 0 1025.4 1.1 74
2017-11-27 08:00:00 12.8 5 Este 9 Este 0 1025.2 0.9 76
2017-11-27 07:00:00 12.5 0 Calma 8 Este 0 1024.6 0.2 85
2017-11-27 06:00:00 12.6 0 Calma 4 Nordeste 0 1024.3 -0.1 89
2017-11-27 05:00:00 12 0 Calma 4 Norte 0 1024.3 0 94
2017-11-27 04:00:00 11.9 0 Calma 2 Nordeste 0 1024.4 -0.6 94
2017-11-27 03:00:00 12.2 0 Calma 5 Nordeste 0 1024.4 -0.4 91
2017-11-27 02:00:00 13.3 0 Calma 6 Norte 0 1024.3 -0.8 92
2017-11-27 01:00:00 13.1 0 Calma 3 Nordeste 0 1025 0.3 94
2017-11-27 00:00:00 13.5 0 Calma 3 Nordeste 0 1024.8 0.6 94
2017-11-26 23:00:00 14.1 0 Calma 6 Noroeste 0 1025.1 0.9 93
2017-11-26 22:00:00 14.8 3 Norte 7 Noroeste 0 1024.7 0.5 92
2017-11-26 21:00:00 16 0 Calma 4 Norte 0 1024.2 0.1 88
2017-11-26 20:00:00 16.5 0 Calma 4 Nordeste 0 1024.2 0.5 86
2017-11-26 19:00:00 17.4 0 Calma 0 Calma 0 1024.2 0.5 79
2017-11-26 18:00:00 18.9 0 Calma 6 Sudeste 0 1024.1 0 70
2017-11-26 17:00:00 19.6 3 Sur 8 Sur 0 1023.7 -0.8 66
2017-11-26 16:00:00 20.4 4 Este 12 Este 0 1023.7 -1.3 60
2017-11-26 15:00:00 21 6 Este 12 Este 0 1024.1 -1.4 60
2017-11-26 14:00:00 19.4 6 Este 13 Este 0 1024.5 -0.9 67
2017-11-26 13:00:00 18.9 0 Calma 8 Este 0 1025 0.2 70
2017-11-26 12:00:00 18.2 3 Este 7 Este 0 1025.5 1.7 71
2017-11-26 11:00:00 18.3 2 Este 6 Este 0 1025.4 2 71
2017-11-26 10:00:00 16.1 0 Calma 8 Nordeste 0 1024.8 2.2 92
2017-11-26 09:00:00 15.5 2 Nordeste 7 Nordeste 0 1023.8 2.2 97
2017-11-26 08:00:00 15.5 0 Calma 6 Nordeste 0 1023.4 2 96
2017-11-26 07:00:00 15.7 3 Nordeste 9 Este 0 1022.6 0.8 94
2017-11-26 06:00:00 16.1 0 Calma 12 Norte 0 1021.6 -0.4 93
2017-11-26 05:00:00 16.4 3 Norte 9 Norte 0 1021.4 -0.1 92
2017-11-26 04:00:00 16.5 4 Norte 10 Noroeste 0 1021.8 0.4 92
2017-11-26 03:00:00 16.7 4 Norte 11 Norte 0 1022 0.5 92
2017-11-26 02:00:00 16.4 0 Calma 11 Noroeste 0 1021.5 0.3 96
2017-11-26 01:00:00 15.8 0 Calma 5 Norte 0 1021.4 0.2 97
2017-11-26 00:00:00 15.7 0 Calma 10 Noroeste 0 1021.5 0.5 97
2017-11-25 23:00:00 15.6 0 Calma 5 Norte 0 1021.2 0.5 96
2017-11-25 22:00:00 15.9 0 Calma 3 Noroeste 0 1021.2 1.1 95
2017-11-25 21:00:00 16.2 0 Calma 2 Nordeste 0 1021 1.2 94
2017-11-25 20:00:00 16.3 0 Calma 2 Este 0 1020.7 1.4 91
2017-11-25 19:00:00 16.9 0 Calma 4 Sur 0 1020.1 1.1 86
2017-11-25 18:00:00 18.6 0 Calma 8 Este 0 1019.8 1 79
2017-11-25 17:00:00 19.1 2 Este 9 Este 0 1019.3 -0.1 76
2017-11-25 16:00:00 19.2 4 Sur 14 Sudeste 0 1019 -1 71
2017-11-25 15:00:00 20.4 6 Sur 12 Sur 0 1018.8 -1.6 62
2017-11-25 14:00:00 18.7 4 Sudeste 8 Sur 0 1019.4 -0.8 61
2017-11-25 13:00:00 17.4 0 Calma 6 Nordeste 0 1020 0.4 62
2017-11-25 12:00:00 14.9 0 Calma 7 Norte 0 1020.4 1.3 70
2017-11-25 11:00:00 13.5 2 Este 9 Este 0 1020.2 1.7 80
2017-11-25 10:00:00 12.7 0 Calma 8 Nordeste 0 1019.6 1.7 98
2017-11-25 09:00:00 11.9 0 Calma 8 Norte 0 1019.1 1.2 99
2017-11-25 08:00:00 11.5 2 Nordeste 10 Norte 0 1018.5 0.5 99
2017-11-25 07:00:00 11.1 2 Norte 6 Norte 0 1017.9 -0.5 99
2017-11-25 06:00:00 10.5 0 Calma 6 Noroeste 0 1017.9 -0.5 99
2017-11-25 05:00:00 10.2 2 Nordeste 5 Norte 0 1018 -0.3 99
2017-11-25 04:00:00 10.9 0 Calma 7 Norte 0 1018.4 -0.1 99
2017-11-25 03:00:00 10.7 2 Noroeste 4 Norte 0 1018.4 -0.2 99
2017-11-25 02:00:00 10.7 0 Calma 0 Calma 0 1018.3 -0.5 98
2017-11-25 01:00:00 11.6 0 Calma 5 Norte 0 1018.5 0 98
2017-11-25 00:00:00 12.1 2 Norte 7 Oeste 0 1018.6 -0.1 98
2017-11-24 23:00:00 12.6 2 Noroeste 13 Este 0 1018.8 0.4 98
2017-11-24 22:00:00 13.5 4 Nordeste 6 Nordeste 0 1018.5 0.3 97
2017-11-24 21:00:00 14.1 3 Nordeste 9 Este 0 1018.7 0.8 95
2017-11-24 20:00:00 15.2 4 Este 9 Este 0 1018.4 0.4 92
2017-11-24 19:00:00 16.5 5 Este 10 Este 0 1018.2 0.2 88
2017-11-24 18:00:00 18.4 4 Este 12 Este 0 1017.9 -0.2 86
2017-11-24 17:00:00 19.7 5 Sudeste 15 Sur 0 1018 -0.8 77
2017-11-24 16:00:00 20.4 5 Sudeste 14 Sudeste 0 1018 -1.2 71
2017-11-24 15:00:00 20.2 6 Sudeste 18 Este 0 1018.1 -1.8 67
2017-11-24 14:00:00 20.2 8 Sudeste 18 Este 0 1018.8 -1.1 61
2017-11-24 13:00:00 19.1 7 Sudeste 17 Este 0 1019.2 -0.3 58
2017-11-24 12:00:00 17.8 10 Este 23 Este 0 1019.9 0.8 60
2017-11-24 11:00:00 16 6 Este 14 Este 0 1019.9 1.4 65
2017-11-24 10:00:00 13.2 6 Nordeste 13 Este 0 1019.5 1.2 87
2017-11-24 09:00:00 11.5 5 Nordeste 10 Este 0 1019.1 1.1 99
2017-11-24 08:00:00 11.6 5 Nordeste 9 Este 0 1018.5 0.5 99
2017-11-24 07:00:00 12.2 4 Nordeste 11 Este 0 1018.3 0.1 99
2017-11-24 06:00:00 12.6 6 Este 9 Este 0 1018 -0.2 99
2017-11-24 05:00:00 12.6 4 Nordeste 9 Este 0 1018 0.1 99
2017-11-24 04:00:00 13.2 6 Este 9 Este 0 1018.2 0.1 99
2017-11-24 03:00:00 13.3 0 Calma 3 Nordeste 0 1018.2 0 98
2017-11-24 02:00:00 13.6 0 Calma 4 Nordeste 0 1017.9 -0.6 98
2017-11-24 01:00:00 14.1 3 Nordeste 5 Este 0 1018.1 -0.1 98
2017-11-24 00:00:00 14.7 2 Este 3 Este 0 1018.2 0.2 97
2017-11-23 23:00:00 15.5 0 Calma 4 Sur 0 1018.5 0.8 95
2017-11-23 22:00:00 16.9 2 Sur 10 Sur 0 1018.2 0.8 93
2017-11-23 21:00:00 18.3 7 Sur 17 Sur 0 1018 1.3 92
2017-11-23 20:00:00 18.2 7 Sur 13 Sur 0 1017.7 1.3 89
2017-11-23 19:00:00 18.4 7 Sur 24 Sur 0 1017.4 0.9 83
2017-11-23 18:00:00 19 12 Sur 26 Sur 0 1016.7 0.1 82
2017-11-23 17:00:00 19.7 15 Sur 26 Sur 0 1016.4 -0.9 82
2017-11-23 16:00:00 19.8 10 Sur 25 Sudeste 0 1016.5 -1.1 85
2017-11-23 15:00:00 19.3 10 Sudeste 32 Sudeste 0 1016.6 -1.2 80
2017-11-23 14:00:00 18.9 15 Este 31 Este 0 1017.3 -0.6 74
2017-11-23 13:00:00 18.6 15 Este 32 Este 0 1017.6 0.1 71
2017-11-23 12:00:00 17.3 13 Este 29 Este 0 1017.8 1.4 74
2017-11-23 11:00:00 16.4 12 Este 29 Este 0 1017.9 2.1 79
2017-11-23 10:00:00 15.1 12 Este 20 Este 0 1017.5 2.4 94
2017-11-23 09:00:00 13.2 8 Este 17 Este 0 1016.4 1.5 98
2017-11-23 08:00:00 12.6 6 Nordeste 13 Este 0 1015.8 1.3 99
2017-11-23 07:00:00 13.8 9 Este 18 Este 0 1015.1 0.7 99
2017-11-23 06:00:00 14.1 10 Este 17 Este 0 1014.9 0.6 99
2017-11-23 05:00:00 13.9 0 Calma 5 Nordeste 0 1014.5 0.3 99
2017-11-23 04:00:00 14.3 4 Este 10 Este 0 1014.4 0 99
2017-11-23 03:00:00 14.5 0 Calma 6 Este 0 1014.3 -0.1 99
2017-11-23 02:00:00 14.3 3 Este 7 Este 0 1014.2 -0.3 99
2017-11-23 01:00:00 13.6 3 Este 6 Este 0 1014.4 0 98
2017-11-23 00:00:00 13.7 4 Este 8 Este 0 1014.4 0.3 98
2017-11-22 23:00:00 14.1 4 Este 8 Este 0 1014.5 0.5 97
2017-11-22 22:00:00 14.4 0 Calma 5 Nordeste 0 1014.4 0.9 96
2017-11-22 21:00:00 14.7 2 Nordeste 5 Este 0 1014.1 0.4 94
2017-11-22 20:00:00 15.2 0 Calma 6 Este 0 1014 0.3 91
2017-11-22 19:00:00 15.9 3 Este 7 Este 0 1013.5 -0.3 85
2017-11-22 18:00:00 16.8 3 Este 13 Este 0 1013.7 -0.3 75
2017-11-22 17:00:00 18.2 4 Sudeste 12 Este 0 1013.7 -1.1 65
2017-11-22 16:00:00 19 5 Sudeste 15 Este 0 1013.8 -1.5 61
2017-11-22 15:00:00 18.9 8 Sudeste 18 Este 0 1014 -2 59
2017-11-22 14:00:00 18.8 6 Sudeste 18 Sudeste 0 1014.8 -1.3 56
2017-11-22 13:00:00 18.2 6 Sudeste 20 Este 0 1015.3 -0.7 53
2017-11-22 12:00:00 16.5 6 Este 14 Este 0 1016 0.4 57
2017-11-22 11:00:00 13.8 5 Nordeste 9 Nordeste 0 1016.1 1 61
2017-11-22 10:00:00 10.9 0 Calma 7 Norte 0 1016 0.9 89
2017-11-22 09:00:00 8.5 0 Calma 8 Nordeste 0 1015.6 0.5 99
2017-11-22 08:00:00 7.3 2 Nordeste 9 Este 0 1015.1 -0.3 99
2017-11-22 07:00:00 7.3 0 Calma 5 Noroeste 0 1015.1 -0.8 99
2017-11-22 06:00:00 7.9 0 Calma 5 Noroeste 0 1015.1 -1.1 99
2017-11-22 05:00:00 7.9 0 Calma 5 Noroeste 0 1015.4 -1 99
2017-11-22 04:00:00 8.3 0 Calma 7 Noroeste 0 1015.9 -1.1 99
2017-11-22 03:00:00 8.3 0 Calma 8 Noroeste 0 1016.2 -1.2 99
2017-11-22 02:00:00 8.8 0 Calma 6 Norte 0 1016.4 -1.3 99
2017-11-22 01:00:00 9.5 2 Noroeste 5 Noroeste 0 1017 -0.4 99
2017-11-22 00:00:00 10.5 0 Calma 8 Noroeste 0 1017.4 -0.4 99
2017-11-21 23:00:00 10 0 Calma 4 Noroeste 0 1017.7 -0.1 97
2017-11-21 22:00:00 11.3 3 Noroeste 8 Noroeste 0 1017.4 -0.2 97
2017-11-21 21:00:00 11.9 3 Nordeste 5 Nordeste 0 1017.8 0.1 93
2017-11-21 20:00:00 12.6 0 Calma 3 Noroeste 0 1017.8 -0.1 86
2017-11-21 19:00:00 13.6 0 Calma 3 Este 0 1017.6 -0.6 79
2017-11-21 18:00:00 16.7 0 Calma 6 Sudeste 0 1017.7 -0.9 70
2017-11-21 17:00:00 18.9 0 Calma 11 Sur 0 1017.9 -1.4 63
2017-11-21 16:00:00 19.3 5 Sudeste 16 Sur 0 1018.2 -1.8 57
2017-11-21 15:00:00 19.7 7 Sur 15 Sudoeste 0 1018.6 -2 53
2017-11-21 14:00:00 20 6 Sudeste 14 Sur 0 1019.3 -1.5 50
2017-11-21 13:00:00 19.5 7 Este 24 Sudeste 0 1020 -0.7 47
2017-11-21 12:00:00 18.3 7 Este 20 Este 0 1020.6 0.2 48
2017-11-21 11:00:00 15.6 8 Este 15 Este 0 1020.8 0.7 55
2017-11-21 10:00:00 11.7 2 Nordeste 8 Nordeste 0 1020.7 0.7 76
2017-11-21 09:00:00 7.6 0 Calma 7 Norte 0 1020.4 0.4 96
2017-11-21 08:00:00 6.2 2 Norte 8 Norte 0 1020.1 0.1 96
2017-11-21 07:00:00 6.5 0 Calma 6 Norte 0 1020 -0.4 95
2017-11-21 06:00:00 7.1 3 Este 6 Este 0 1020 -0.2 92
2017-11-21 05:00:00 8.3 0 Calma 11 Norte 0 1020 -0.3 86
2017-11-21 04:00:00 9.4 5 Norte 14 Noroeste 0 1020.4 0.2 88
2017-11-21 03:00:00 7.2 0 Calma 4 Norte 0 1020.2 -0.1 95
2017-11-21 02:00:00 7.7 0 Calma 4 Norte 0 1020.3 0 92
2017-11-21 01:00:00 8.2 0 Calma 7 Noroeste 0 1020.2 -0.2 92
2017-11-21 00:00:00 8.5 0 Calma 4 Norte 0 1020.3 -0.4 89
2017-11-20 23:00:00 9.1 0 Calma 3 Norte 0 1020.3 0.1 86
2017-11-20 22:00:00 10.3 0 Calma 3 Norte 0 1020.4 0.6 85
2017-11-20 21:00:00 11.3 0 Calma 6 Noroeste 0 1020.7 1.1 82
2017-11-20 20:00:00 12.2 3 Noroeste 6 Noroeste 0 1020.2 0.5 72
2017-11-20 19:00:00 14.1 0 Calma 5 Oeste 0 1019.8 0.2 62
2017-11-20 18:00:00 17.5 4 Oeste 7 Sudoeste 0 1019.6 -0.6 53
2017-11-20 17:00:00 19.9 4 Sur 13 Sudeste 0 1019.7 -1 44
2017-11-20 16:00:00 20.3 6 Sur 14 Sudoeste 0 1019.6 -1.9 47
2017-11-20 15:00:00 20.7 6 Sudoeste 17 Sur 0 1020.2 -1.7 48
2017-11-20 14:00:00 20.2 8 Sudeste 18 Sudeste 0 1020.7 -1.1 48
2017-11-20 13:00:00 19.6 9 Sudeste 17 Este 0 1021.5 0.1 49
2017-11-20 12:00:00 18 8 Este 14 Este 0 1021.9 0.9 50
2017-11-20 11:00:00 16.4 5 Este 11 Este 0 1021.8 1.5 59
2017-11-20 10:00:00 11.7 2 Norte 7 Norte 0 1021.4 1.1 80
2017-11-20 09:00:00 7.7 3 Norte 8 Norte 0 1021 1.1 97
2017-11-20 08:00:00 6.3 3 Norte 7 Norte 0 1020.3 0.8 94
2017-11-20 07:00:00 7 2 Norte 7 Norte 0 1020.3 0.7 94
2017-11-20 06:00:00 6.6 2 Norte 5 Norte 0 1019.9 0.5 94
2017-11-20 05:00:00 7.1 2 Norte 6 Norte 0 1019.5 -0.1 92
2017-11-20 04:00:00 7.2 3 Norte 7 Noroeste 0 1019.6 0.1 92
2017-11-20 03:00:00 7.7 0 Calma 6 Norte 0 1019.4 -0.3 93
2017-11-20 02:00:00 7.9 0 Calma 5 Norte 0 1019.6 -0.2 91
2017-11-20 01:00:00 8.4 0 Calma 6 Noroeste 0 1019.5 0 90
2017-11-20 00:00:00 9.2 0 Calma 9 Noroeste 0 1019.7 0.3 87
2017-11-19 23:00:00 9.4 3 Noroeste 10 Noroeste 0 1019.8 0.9 91
2017-11-19 22:00:00 9.4 0 Calma 4 Norte 0 1019.5 0.8 92
2017-11-19 21:00:00 10.8 0 Calma 7 Norte 0 1019.4 1 90
2017-11-19 20:00:00 11.7 3 Noroeste 6 Noroeste 0 1018.9 0.6 83
2017-11-19 19:00:00 13.3 0 Calma 3 Oeste 0 1018.7 0.4 73
2017-11-19 18:00:00 16.5 0 Calma 7 Sur 0 1018.4 -0.1 59
2017-11-19 17:00:00 18.2 4 Sur 10 Sudeste 0 1018.3 -0.7 48
2017-11-19 16:00:00 19 7 Sur 12 Sur 0 1018.3 -1.3 45
2017-11-19 15:00:00 19.1 5 Sudeste 14 Sudeste 0 1018.5 -1.4 48
2017-11-19 14:00:00 18.8 7 Este 14 Sudeste 0 1019 -0.6 49
2017-11-19 13:00:00 17.9 7 Sudeste 17 Sudeste 0 1019.6 0.3 50
2017-11-19 12:00:00 17.7 8 Este 15 Este 0 1019.9 1.2 50
2017-11-19 11:00:00 16 8 Este 15 Nordeste 0 1019.6 1.2 59
2017-11-19 10:00:00 11.8 2 Norte 8 Norte 0 1019.3 1.4 85
2017-11-19 09:00:00 7.9 3 Norte 7 Norte 0 1018.7 1.3 99
2017-11-19 08:00:00 6.4 3 Norte 5 Norte 0 1018.4 1 99
2017-11-19 07:00:00 6.5 0 Calma 0 Calma 0 1017.9 0.3 99
2017-11-19 06:00:00 7.2 0 Calma 0 Calma 0 1017.4 0 99
2017-11-19 05:00:00 8.4 0 Calma 7 Este 0 1017.4 0.2 99
2017-11-19 04:00:00 8.6 0 Calma 4 Nordeste 0 1017.6 0.1 99
2017-11-19 03:00:00 8.7 0 Calma 5 Norte 0 1017.4 -0.1 99
2017-11-19 02:00:00 9.1 3 Norte 5 Norte 0 1017.2 -0.3 99
2017-11-19 01:00:00 9.5 0 Calma 4 Norte 0 1017.5 0.1 99
2017-11-19 00:00:00 10.2 0 Calma 5 Noroeste 0 1017.5 0.5 99
2017-11-18 23:00:00 10.3 3 Noroeste 4 Noroeste 0 1017.5 0.5 98
2017-11-18 22:00:00 11 0 Calma 3 Noroeste 0 1017.4 0.4 97
2017-11-18 21:00:00 12.1 0 Calma 4 Noroeste 0 1017 0.1 95
2017-11-18 20:00:00 12.9 0 Calma 4 Oeste 0 1017 0.2 92
2017-11-18 19:00:00 14.6 0 Calma 7 Oeste 0 1017 0.3 86
2017-11-18 18:00:00 16.6 4 Sudoeste 10 Sudoeste 0 1016.9 -0.1 80
2017-11-18 17:00:00 18.2 6 Sudoeste 11 Sudoeste 0 1016.8 -0.8 73
2017-11-18 16:00:00 18.5 7 Sur 13 Sur 0 1016.7 -1.5 68
2017-11-18 15:00:00 18.6 7 Sur 13 Sur 0 1017 -1.9 66
2017-11-18 14:00:00 18.8 7 Sur 14 Sudoeste 0 1017.6 -1.3 64
2017-11-18 13:00:00 19.1 4 Sudeste 10 Sudeste 0 1018.2 -0.4 62
2017-11-18 12:00:00 17.5 6 Este 13 Nordeste 0 1018.9 0.6 68
2017-11-18 11:00:00 14.1 2 Norte 10 Norte 0 1018.9 1.1 77
2017-11-18 10:00:00 11.4 3 Norte 9 Norte 0 1018.6 1.1 84
2017-11-18 09:00:00 8.6 0 Calma 6 Norte 0 1018.3 1 97
2017-11-18 08:00:00 7.5 0 Calma 5 Norte 0 1017.8 0.5 99
2017-11-18 07:00:00 7.4 0 Calma 8 Norte 0 1017.5 0.2 99
2017-11-18 06:00:00 7.8 0 Calma 6 Norte 0 1017.3 -0.2 99
2017-11-18 05:00:00 8.4 2 Nordeste 7 Nordeste 0 1017.3 -0.3 99
2017-11-18 04:00:00 8.4 4 Nordeste 5 Nordeste 0 1017.3 -0.7 99
2017-11-18 03:00:00 8.8 3 Nordeste 5 Nordeste 0 1017.5 -0.5 99
2017-11-18 02:00:00 8.9 0 Calma 4 Nordeste 0 1017.6 -0.3 99
2017-11-18 01:00:00 9.1 0 Calma 0 Calma 0 1018 0.3 97
2017-11-18 00:00:00 10 0 Calma 10 Noroeste 0 1018 0.5 97
2017-11-17 23:00:00 10.5 0 Calma 7 Noroeste 0 1017.9 0.5 97
2017-11-17 22:00:00 11.3 3 Noroeste 8 Noroeste 0 1017.7 0.5 95
2017-11-17 21:00:00 12.1 2 Noroeste 5 Oeste 0 1017.5 0.5 89
2017-11-17 20:00:00 13.2 3 Oeste 5 Oeste 0 1017.4 0.4 83
2017-11-17 19:00:00 14.6 2 Oeste 7 Oeste 0 1017.2 0.1 78
2017-11-17 18:00:00 16.9 4 Sudoeste 10 Sur 0 1017 -0.7 71
2017-11-17 17:00:00 18.4 6 Sudoeste 13 Sudoeste 0 1017 -1.4 65
2017-11-17 16:00:00 19.2 8 Sur 13 Sur 0 1017.1 -2.1 61
2017-11-17 15:00:00 19.4 7 Sudoeste 13 Sur 0 1017.7 -2.3 60
2017-11-17 14:00:00 19 7 Sur 13 Sudeste 0 1018.4 -1.8 59
2017-11-17 13:00:00 18.9 4 Este 11 Este 0 1019.2 -0.6 60
2017-11-17 12:00:00 17.7 4 Este 12 Sudeste 0 1020 0.6 62
2017-11-17 11:00:00 15.9 4 Este 9 Nordeste 0 1020.2 1.4 67
2017-11-17 10:00:00 11.8 3 Norte 9 Norte 0 1019.8 1.5 76
2017-11-17 09:00:00 9 0 Calma 5 Norte 0 1019.4 1.2 87
2017-11-17 08:00:00 7.6 0 Calma 5 Nordeste 0 1018.8 0.8 86
2017-11-17 07:00:00 8.2 2 Norte 8 Norte 0 1018.3 0 85
2017-11-17 06:00:00 8.3 0 Calma 7 Nordeste 0 1018.2 -0.2 85
2017-11-17 05:00:00 8.8 0 Calma 6 Norte 0 1018 -0.4 86
2017-11-17 04:00:00 8.7 3 Nordeste 6 Nordeste 0 1018.3 -0.1 91
2017-11-17 03:00:00 9.2 2 Nordeste 7 Norte 0 1018.4 -0.2 89
2017-11-17 02:00:00 10.3 4 Este 12 Norte 0 1018.4 -0.3 86
2017-11-17 01:00:00 11.8 10 Norte 16 Norte 0 1018.4 -0.1 91
2017-11-17 00:00:00 9.8 4 Norte 9 Noroeste 0 1018.6 0.4 97
2017-11-16 23:00:00 10.2 0 Calma 3 Norte 0 1018.7 0.6 96
2017-11-16 22:00:00 11.1 2 Noroeste 7 Norte 0 1018.5 0.7 94
2017-11-16 21:00:00 12 0 Calma 5 Noroeste 0 1018.2 0.7 91
2017-11-16 20:00:00 13.7 3 Oeste 6 Oeste 0 1018.1 0.7 83
2017-11-16 19:00:00 14.6 3 Oeste 6 Oeste 0 1017.8 0.4 77
2017-11-16 18:00:00 17 3 Sudoeste 11 Sur 0 1017.5 -0.1 68
2017-11-16 17:00:00 18.2 6 Sur 13 Sur 0 1017.4 -0.9 62
2017-11-16 16:00:00 18.8 8 Sur 14 Sur 0 1017.4 -1.6 60
2017-11-16 15:00:00 19.3 6 Sur 13 Sudoeste 0 1017.6 -2.2 56
2017-11-16 14:00:00 19.6 6 Sur 14 Sur 0 1018.3 -1.6 55
2017-11-16 13:00:00 19.6 0 Calma 10 Este 0 1019 -0.5 58
2017-11-16 12:00:00 17.5 5 Este 13 Sudeste 0 1019.8 1.1 59
2017-11-16 11:00:00 15.4 5 Nordeste 10 Nordeste 0 1019.9 1.7 73
2017-11-16 10:00:00 13.1 3 Norte 10 Norte 0 1019.5 1.7 80
2017-11-16 09:00:00 10.8 2 Norte 10 Norte 0 1018.7 1.2 88
2017-11-16 08:00:00 9.5 2 Nordeste 7 Nordeste 0 1018.2 0.8 91
2017-11-16 07:00:00 10.3 4 Este 12 Norte 0 1017.8 0.2 87
2017-11-16 06:00:00 10.8 2 Norte 9 Noroeste 0 1017.5 -0.1 88
2017-11-16 05:00:00 11.6 3 Norte 10 Norte 0 1017.4 -0.2 88
2017-11-16 04:00:00 11.7 2 Norte 14 Norte 0 1017.6 -0.2 89
2017-11-16 03:00:00 12.1 2 Norte 10 Nordeste 0 1017.6 -0.1 89
2017-11-16 02:00:00 12.2 3 Norte 9 Norte 0 1017.6 -0.1 90
2017-11-16 01:00:00 11.9 4 Norte 9 Norte 0 1017.8 0 91
2017-11-16 00:00:00 11.5 3 Norte 10 Norte 0 1017.7 0.3 91
2017-11-15 23:00:00 10.6 0 Calma 6 Norte 0 1017.7 0.5 86
2017-11-15 22:00:00 11.8 0 Calma 9 Norte 0 1017.8 1 83
2017-11-15 21:00:00 12.5 5 Norte 9 Noroeste 0 1017.4 0.6 77
2017-11-15 20:00:00 13.5 3 Noroeste 7 Oeste 0 1017.2 0.2 71
2017-11-15 19:00:00 14.3 0 Calma 6 Oeste 0 1016.8 -0.3 65
2017-11-15 18:00:00 17.4 5 Sudoeste 9 Sudoeste 0 1016.8 -0.6 56
2017-11-15 17:00:00 19.5 3 Sudoeste 11 Sur 0 1017 -0.8 52
2017-11-15 16:00:00 20 6 Sur 14 Sudeste 0 1017.1 -1.3 50
2017-11-15 15:00:00 20 6 Sudeste 18 Sudeste 0 1017.4 -1.8 50
2017-11-15 14:00:00 19.8 10 Sudeste 19 Este 0 1017.8 -1.6 52
2017-11-15 13:00:00 19.4 8 Este 17 Este 0 1018.4 -0.7 52
2017-11-15 12:00:00 18.5 5 Este 14 Este 0 1019.2 0.4 53
2017-11-15 11:00:00 16.2 6 Este 12 Este 0 1019.4 1 56
2017-11-15 10:00:00 12 2 Norte 8 Norte 0 1019.1 1.4 66
2017-11-15 09:00:00 9 0 Calma 5 Norte 0 1018.8 1.3 79
2017-11-15 08:00:00 7 0 Calma 6 Norte 0 1018.4 1.2 81
2017-11-15 07:00:00 6.8 3 Norte 7 Norte 0 1017.7 0.4 82
2017-11-15 06:00:00 6.5 2 Norte 6 Norte 0 1017.5 0.3 83
2017-11-15 05:00:00 6.4 0 Calma 5 Norte 0 1017.2 0.1 80
2017-11-15 04:00:00 7.7 0 Calma 10 Nordeste 0 1017.3 -0.1 79
2017-11-15 03:00:00 8.2 3 Nordeste 7 Nordeste 0 1017.2 -0.1 85
2017-11-15 02:00:00 7.9 0 Calma 6 Nordeste 0 1017.1 -0.1 91
2017-11-15 01:00:00 8.6 0 Calma 5 Norte 0 1017.4 0.4 91
2017-11-15 00:00:00 9.2 2 Noroeste 5 Nordeste 0 1017.3 0.8 91